City Time Now High Low DP Feels RH% Vsby Pressure Ceiling Direction Speed Gust Precip
Algona
LIFR
11:55PM 34° 37° 34° 34° 24° 100
%
mi
1017.9
mb
400
ft
N 15
mph
22
mph
0.04"
KAXA 230455Z AUTO 36013G19KT 1 1/4SM BR OVC004 01/01 A3006 RMK A01
Ankeny
IFR
11:55PM 37° 52° 37° 36° 29° 93
%
8
mi
1016.3
mb
900
ft
NNW 13
mph
22
mph
0.63"
KIKV 230455Z AUTO 33011G19KT 8SM -RA OVC009 03/02 A3001 RMK AO2 P0008
Atlantic
IFR
11:55PM 36° 48° 36° 36° 24° 100
%
9
mi
1017.6
mb
900
ft
N 22
mph
0.28"
KAIO 230455Z AUTO 36019KT 9SM OVC009 02/02 A3005 RMK AO2
Audubon
IFR
11:55PM 36° 45° 36° 32° 25° 87
%
10
mi
1018.3
mb
600
ft
NNW 18
mph
0.28"
KADU 230455Z AUTO 34016KT 10SM OVC006 02/00 A3007 RMK AO2
Ames
IFR
11:53PM 37° 49° 37° 35° 27° 93
%
10
mi
1016.3
mb
900
ft
🔹
NNW 17
mph
28
mph
0.87"
KAMW 230453Z AUTO 34015G24KT 10SM -RA OVC009 03/02 A3001 RMK AO2 CIG 007V013 SLP164 P0004 T00280017
Boone
IFR
11:55PM 36° 48° 36° 36° 24° 100
%
9
mi
1015.9
mb
600
ft
NNW 21
mph
26
mph
0.09"
KBNW 230455Z AUTO 34018G23KT 9SM -RA OVC006 02/02 A3000 RMK AO2 P0001
Burlington
VFR
11:53PM 69° 81° 48° 60° 73
%
10
mi
1009.8
mb
None SW 10
mph
0.33"
KBRL 230453Z AUTO 22009KT 10SM FEW060 21/16 A2982 RMK AO2 SLP094 T02060156
Carroll
IFR
11:55PM 36° 45° 36° 36° 26° 100
%
5
mi
1018.6
mb
500
ft
N 16
mph
0.44"
KCIN 230455Z AUTO 35014KT 5SM BR OVC005 02/02 A3008 RMK AO2
Cedar Rapids
IFR
11:52PM 41° 58° 41° 40° 32° 96
%
9
mi
1010.8
mb
700
ft
N 17
mph
0.98"
KCID 230452Z AUTO 36015KT 9SM -RA BKN007 BKN018 OVC049 05/04 A2985 RMK AO2 RAB0356 TSB00E15 SLP111 P0047 T00500044
Chariton
IFR
11:55PM 39° 77° 39° 39° 30° 100
%
4
mi
1014.6
mb
600
ft
NW 17
mph
0.56"
KCNC 230455Z AUTO 32015KT 4SM -RA OVC006 04/04 A2996 RMK AO2 P0020
Charles City
IFR
11:55PM 36° 39° 36° 36° 26° 100
%
10
mi
1014.6
mb
700
ft
N 15
mph
24
mph
0.85"
KCCY 230455Z AUTO 36013G21KT 10SM OVC007 02/02 A2996 RMK AO2
Clarinda
MVFR
11:55PM 37° 73° 37° 37° 30° 100
%
7
mi
1017.6
mb
1200
ft
N 12
mph
21
mph
0.32"
KICL 230455Z AUTO 35010G18KT 7SM RA OVC012 03/03 A3005 RMK AO2 P0004
Clarion
IFR
11:55PM 36° 41° 36° 36° 27° 100
%
6
mi
1016.9
mb
500
ft
N 13
mph
22
mph
0.54"
KCAV 230455Z AUTO 36011G19KT 6SM BR OVC005 02/02 A3003 RMK A01
Clinton
VFR
10:56PM 70° 77° 44° 62° 76
%
10
mi
1008.1
mb
None SSW 18
mph
0.50"
KCWI 230356Z AUTO 20016KT 10SM SCT085 21/17 A2977 RMK AO2 SLP084 T02110167
Council Bluffs
IFR
11:55PM 36° 46° 36° 36° 27° 100
%
10
mi
1018.3
mb
700
ft
N 13
mph
23
mph
0.13"
KCBF 230455Z AUTO 35011G20KT 10SM OVC007 02/02 A3007 RMK AO2
Creston
IFR
11:55PM 36° 72° 36° 36° 26° 100
%
5
mi
1015.6
mb
800
ft
NNW 15
mph
0.54"
KCSQ 230455Z AUTO 34013KT 5SM -RA BKN008 BKN025 BKN035 02/02 A2999 RMK AO2 P0011
Centerville
VFR
11:35PM 43° 81° 43° 43° 41° 100
%
10
mi
1013.9
mb
None NW 3
mph
0.02"
KTVK 230435Z AUTO 32003KT 10SM FEW008 06/06 A2994 RMK AO2
Cherokee
IFR
11:35PM 34° 38° 33° 33° 25° 97
%
10
mi
1020.0
mb
900
ft
N 13
mph
20
mph
0.00"
KCKP 230435Z AUTO 36011G17KT 10SM OVC009 01/01 A3012 RMK AO2 T00100006
Denison
IFR
11:55PM 34° 45° 34° 34° 23° 100
%
9
mi
1019.6
mb
800
ft
N 17
mph
26
mph
0.27"
KDNS 230455Z AUTO 35015G23KT 9SM OVC008 01/01 A3011 RMK AO2
Des Moines
IFR
10:54PM 38° 53° 38° 36° 30° 93
%
9
mi
1015.9
mb
500
ft
NW 13
mph
2.93"
KDSM 230354Z 31011KT 9SM -RA BKN005 OVC009 03/02 A3000 RMK AO2 LTG DSNT E-S TSE37 SLP162 OCNL LTGICCG DSNT E-S TS MOV NE CB DSNT E-S MOV NE P0011 T00330022
Dubuque
LIFR
11:53PM 44° 56° 43° 43° 37° 96
%
8
mi
1010.5
mb
400
ft
N 14
mph
1.27"
KDBQ 230453Z AUTO 36012KT 8SM RA BKN004 BKN030 OVC080 07/06 A2984 RMK AO2 LTG DSNT N AND W RAB30 TSB34E49 SLP111 P0009 T00670061
Estherville
IFR
11:52PM 32° 33° 31° 32° 20° 100
%
mi
1019.3
mb
500
ft
🔹
N 18
mph
0.21"
KEST 230452Z AUTO 36016KT 2 1/2SM UP BR OVC005 00/00 A3010 RMK AO2 PK WND 35027/0423 UPB50 CIG 004V009 SLP208 P0000 T00000000
Fairfield
IFR
11:55PM 45° 81° 45° 45° 36° 100
%
10
mi
1012.9
mb
900
ft
WNW 21
mph
26
mph
0.19"
KFFL 230455Z AUTO 30018G23KT 10SM OVC009 07/07 A2991 RMK A01
Fort Dodge
IFR
10:56PM 35° 43° 35° 34° 27° 96
%
10
mi
1016.9
mb
800
ft
N 12
mph
17
mph
0.71"
KFOD 230356Z AUTO 01010G15KT 10SM OVC008 02/01 A3003 RMK AO2 SLP209 T00170011 FZRANO
Fort Madison
VFR
11:55PM 64° 81° 48° 57° 77
%
10
mi
1010.8
mb
6000
ft
NW 13
mph
0.00"
KFSW 230455Z AUTO 32011KT 10SM BKN060 BKN075 18/14 A2985 RMK AO2
Forest City
IFR
11:35PM 36° 37° 34° 36° 27° 100
%
4
mi
1016.6
mb
500
ft
N 14
mph
0.26"
KFXY 230435Z AUTO 36012KT 4SM BR OVC005 02/02 A3002 RMK AO2
Grinnell
IFR
11:55PM 42° 63° 42° 40° 35° 90
%
10
mi
1012.9
mb
900
ft
NNW 15
mph
1.60"
KGGI 230455Z AUTO 34013KT 10SM RA BKN009 BKN048 OVC065 06/04 A2991 RMK AO2 P0012 T00580042
Harlan
IFR
11:55PM 36° 46° 36° 34° 26° 93
%
10
mi
1018.6
mb
700
ft
N 16
mph
0.13"
KHNR 230455Z AUTO 35014KT 10SM OVC007 02/01 A3008 RMK AO2
Hampton
IFR
11:35PM 36° 41° 36° 34° 27° 93
%
10
mi
1015.6
mb
600
ft
N 12
mph
20
mph
1.05"
KHPT 230435Z AUTO 36010G17KT 10SM OVC006 02/01 A2999 RMK AO2
Independence
IFR
11:35PM 38° 48° 38° 37° 30° 96
%
mi
1012.5
mb
1100
ft
N 14
mph
2.46"
KIIB 230435Z AUTO 36012KT 1 1/2SM UP BKN011 BKN021 OVC030 03/03 A2990 RMK AO2 P0016 T00330027
Iowa City
IFR
11:52PM 47° 75° 45° 44° 42° 90
%
10
mi
1011.5
mb
900
ft
NW 9
mph
0.92"
KIOW 230452Z AUTO 31008KT 10SM BKN009 OVC039 08/07 A2987 RMK AO2 SLP118 T00830067
Iowa Falls
IFR
11:55PM 37° 45° 37° 33° 27° 87
%
10
mi
1015.6
mb
700
ft
NNW 17
mph
24
mph
1.10"
KIFA 230455Z AUTO 34015G21KT 10SM OVC007 03/01 A2999 RMK AO2 T00260006
Keokuk
VFR
11:35PM 70° 81° 50° 63° 78
%
10
mi
1009.5
mb
None S 17
mph
23
mph
0.00"
KEOK 230435Z AUTO 19015G20KT 10SM CLR 21/17 A2981 RMK AO2
Knoxville
IFR
11:55PM 39° 77° 39° 37° 28° 93
%
3
mi
1015.9
mb
700
ft
NW 24
mph
33
mph
0.49"
KOXV 230455Z AUTO 31021G29KT 3SM RA OVC007 04/03 A3000 RMK AO2 P0020
Lamoni
IFR
11:53PM 39° 79° 39° 36° 33° 89
%
10
mi
1014.9
mb
800
ft
NNW 8
mph
22
mph
0.25"
KLWD 230453Z AUTO 34007G19KT 10SM VCTS -RA BKN008 BKN030 OVC035 04/02 A2997 RMK AO2 LTG DSNT E AND SW RAB0358 SLP150 P0018 T00390022
Le Mars
IFR
11:55PM 34° 39° 34° 32° 23° 93
%
8
mi
1021.0
mb
900
ft
N 16
mph
0.07"
KLRJ 230455Z AUTO 36014KT 8SM OVC009 01/M00 A3015 RMK AO2
Marshalltown
IFR
11:53PM 36° 49° 36° 36° 26° 100
%
10
mi
1013.9
mb
900
ft
NNW 17
mph
0.79"
KMIW 230453Z AUTO 34015KT 10SM -RA BKN009 OVC035 02/02 A2994 RMK AO2 SLP146 P0007 T00220022
Mason City
IFR
11:53PM 35° 38° 34° 34° 25° 96
%
6
mi
1016.9
mb
500
ft
N 16
mph
0.38"
KMCW 230453Z AUTO 35014KT 6SM BR OVC005 02/01 A3003 RMK AO2 SLP175 T00170011
Monticello
IFR
11:55PM 45° 54° 43° 45° 40° 100
%
3
mi
1011.2
mb
600
ft
NNW 8
mph
14
mph
1.08"
KMXO 230455Z AUTO 34007G12KT 3SM RA BKN006 BKN027 OVC046 07/07 A2986 RMK AO2 P0020
Mount Pleasant
IFR
11:35PM 54° 81° 48° 50° 88
%
10
mi
1011.5
mb
800
ft
NW 12
mph
0.00"
KMPZ 230435Z AUTO 32010KT 10SM BKN008 12/10 A2987 RMK AO2
Muscatine
VFR
11:55PM 50° 81° 46° 48° 93
%
10
mi
1011.2
mb
None NW 7
mph
13
mph
0.00"
KMUT 230455Z AUTO 31006G11KT 10SM FEW009 SCT060 SCT100 10/09 A2986 RMK AO2
Newton
IFR
11:55PM 37° 57° 37° 37° 27° 100
%
10
mi
1013.5
mb
800
ft
NNW 18
mph
24
mph
1.91"
KTNU 230455Z AUTO 34016G21KT 10SM BKN008 OVC013 03/03 A2993 RMK A01 P0014
Oelwein
IFR
11:55PM 37° 43° 37° 36° 29° 93
%
9
mi
1013.5
mb
800
ft
N 13
mph
0.75"
KOLZ 230455Z AUTO 35011KT 9SM BKN008 BKN012 OVC031 03/02 A2993 RMK A01 P0007
Ottumwa
IFR
11:53PM 42° 79° 42° 41° 35° 96
%
10
mi
1013.2
mb
800
ft
NW 15
mph
24
mph
0.47"
KOTM 230453Z AUTO 31013G21KT 10SM BKN008 OVC048 06/05 A2992 RMK AO2 LTG DSNT NW RAB15E51 SLP131 P0004 T00560050
Osceola
IFR
11:35PM 39° 78° 39° 37° 30° 94
%
mi
1015.6
mb
800
ft
NW 15
mph
23
mph
0.70"
KI75 230435Z AUTO 31013G20KT 2 1/2SM -RA OVC008 04/03 A2999 RMK AO2 VIS 1 1/2V5 P0006 T00370029
Oskaloosa
IFR
11:55PM 43° 81° 43° 42° 36° 95
%
10
mi
1013.5
mb
700
ft
NW 16
mph
20
mph
0.28"
KOOA 230455Z AUTO 32014G17KT 10SM -RA BKN007 OVC033 06/06 A2993 RMK AO2 P0004 T00620055
Pella
MVFR
11:55PM 39° 72° 39° 38° 32° 97
%
10
mi
1014.6
mb
1100
ft
NNW 10
mph
18
mph
0.03"
KPEA 230455Z AUTO 33009G16KT 10SM -RA OVC011 04/03 A2996 RMK AO2 P0002 T00370033 402220037
Perry
IFR
11:55PM 37° 48° 37° 34° 26° 92
%
10
mi
1016.3
mb
900
ft
NNW 18
mph
0.00"
KPRO 230455Z AUTO 34016KT 10SM OVC009 03/01 A3001 RMK AO2 T00250013
Quad Cities
VFR
11:52PM 55° 79° 44° 51° 87
%
10
mi
1010.5
mb
None NW 17
mph
🔹
2.09"
KDVN 230452Z AUTO 31015KT 10SM FEW070 13/11 A2984 RMK AO2 PK WND 19028/0354 WSHFT 0359 SLP102 T01280106
Red Oak
MVFR
11:55PM 37° 54° 37° 36° 28° 93
%
10
mi
1017.9
mb
1000
ft
NNW 16
mph
30
mph
0.17"
KRDK 230455Z AUTO 34014G26KT 10SM OVC010 03/02 A3006 RMK AO2 P0011
Sheldon
IFR
11:55PM 32° 36° 32° 32° 20° 100
%
5
mi
1020.3
mb
700
ft
N 18
mph
24
mph
0.17"
KSHL 230455Z AUTO 36016G21KT 5SM BR OVC007 00/00 A3013 RMK AO2
Shenandoah
MVFR
11:35PM 37° 64° 37° 37° 29° 100
%
10
mi
1017.9
mb
1100
ft
N 14
mph
23
mph
0.42"
KSDA 230435Z AUTO 35012G20KT 10SM OVC011 03/03 A3006 RMK AO2
Sioux City
MVFR
11:52PM 35° 41° 35° 32° 24° 88
%
9
mi
1021.7
mb
1200
ft
N 18
mph
0.13"
KSUX 230452Z AUTO 36016KT 9SM OVC012 02/00 A3017 RMK AO2 PK WND 35028/0414 SLP228 T00170000
Spencer
IFR
11:53PM 35° 37° 34° 32° 25° 88
%
3
mi
1020.0
mb
800
ft
🔹
N 17
mph
0.14"
KSPW 230453Z AUTO 35015KT 3SM -RA BR OVC008 02/00 A3012 RMK AO2 CIG 004V010 SLP214 P0000 T00170000
Sioux County
IFR
11:55PM 32° 37° 32° 32° 19° 100
%
10
mi
1020.7
mb
700
ft
N 22
mph
0.06"
KSXK 230455Z AUTO 36019KT 10SM OVC007 00/00 A3014 RMK AO2
Storm Lake
IFR
11:55PM 34° 37° 34° 34° 24° 100
%
5
mi
1018.6
mb
500
ft
N 14
mph
28
mph
0.03"
KSLB 230455Z AUTO 36012G24KT 5SM BR BKN005 OVC009 01/01 A3008 RMK AO2
Vinton
IFR
11:55PM 41° 51° 41° 41° 33° 100
%
mi
1012.2
mb
800
ft
NNW 13
mph
18
mph
0.79"
KVTI 230455Z AUTO 34011G16KT 2 1/2SM UP OVC008 05/05 A2989 RMK AO2 P0015 T00470047
Washington
IFR
11:55PM 46° 81° 45° 45° 40° 93
%
6
mi
1011.2
mb
700
ft
NW 14
mph
0.93"
KAWG 230455Z AUTO 31012KT 6SM -RA OVC007 08/07 A2986 RMK AO2
Waterloo
MVFR
11:26PM 38° 45° 38° 35° 30° 90
%
5
mi
1013.5
mb
1100
ft
N 12
mph
2.80"
KALO 230426Z AUTO 35010KT 5SM RA BR BKN011 OVC018 03/02 A2993 RMK AO2 TSE03 P0005 T00330017
Webster City
IFR
11:35PM 36° 43° 36° 36° 25° 100
%
10
mi
1015.9
mb
600
ft
N 18
mph
26
mph
0.79"
KEBS 230435Z AUTO 35016G23KT 10SM OVC006 02/02 A3000 RMK AO2
Click here to show this page without METARs included